createdAt,value
2019-01-04T00:00:18.984Z,13.90
2019-01-04T00:02:46.556Z,16.20
2019-01-04T00:05:14.133Z,11.37
2019-01-04T00:07:41.675Z,10.70
2019-01-04T00:10:09.256Z,12.30
2019-01-04T00:12:36.799Z,11.67
2019-01-04T00:15:04.369Z,11.37
2019-01-04T00:17:31.908Z,13.83
2019-01-04T00:19:59.471Z,11.97
2019-01-04T00:22:27.939Z,12.47
2019-01-04T00:24:55.500Z,12.80
2019-01-04T00:27:23.059Z,11.50
2019-01-04T00:29:50.655Z,12.17
2019-01-04T00:32:18.191Z,12.03
2019-01-04T00:34:45.789Z,11.70
2019-01-04T00:37:13.332Z,12.10
2019-01-04T00:39:40.900Z,11.60
2019-01-04T00:42:08.471Z,11.67
2019-01-04T00:44:36.009Z,11.70
2019-01-04T00:47:03.590Z,11.70
2019-01-04T00:49:31.132Z,12.00
2019-01-04T00:51:58.812Z,11.17
2019-01-04T00:54:27.360Z,11.53
2019-01-04T00:57:03.560Z,13.10
2019-01-04T00:59:38.951Z,13.80
2019-01-04T01:02:11.098Z,14.33
2019-01-04T01:07:49.749Z,14.40
2019-01-04T01:16:32.116Z,16.08
2019-01-04T01:19:06.608Z,24.87
2019-01-04T01:21:39.916Z,16.87
2019-01-04T01:27:14.288Z,13.88
2019-01-04T01:29:53.655Z,13.67
2019-01-04T01:32:33.023Z,13.00
2019-01-04T01:35:08.229Z,13.47
2019-01-04T01:38:00.315Z,14.03
2019-01-04T01:40:37.585Z,11.93
2019-01-04T01:43:17.111Z,12.20
2019-01-04T01:48:50.773Z,13.95
2019-01-04T01:51:28.204Z,11.23
2019-01-04T01:53:56.515Z,15.70
2019-01-04T01:56:24.084Z,13.83
2019-01-04T01:58:51.624Z,14.23
2019-01-04T02:01:19.191Z,11.80
2019-01-04T02:03:46.743Z,14.47
2019-01-04T02:06:14.311Z,10.23
2019-01-04T02:08:41.863Z,11.90
2019-01-04T02:11:09.423Z,13.93
2019-01-04T02:13:36.994Z,17.40
2019-01-04T02:16:04.536Z,15.80
2019-01-04T02:18:32.103Z,14.10
2019-01-04T02:20:59.648Z,12.80
2019-01-04T02:23:28.216Z,12.97
2019-01-04T02:25:55.784Z,12.03
2019-01-04T02:28:23.445Z,12.70
2019-01-04T02:30:50.995Z,12.90
2019-01-04T02:33:18.568Z,12.90
2019-01-04T02:35:46.109Z,13.10
2019-01-04T02:38:13.677Z,14.40
2019-01-04T02:40:41.234Z,13.57
2019-01-04T02:43:08.804Z,15.83
2019-01-04T02:45:36.353Z,14.03
2019-01-04T02:48:03.891Z,14.00
2019-01-04T02:50:31.768Z,12.57
2019-01-04T02:52:59.312Z,13.47
2019-01-04T02:55:26.887Z,14.30
2019-01-04T02:57:54.455Z,13.30
2019-01-04T03:00:21.999Z,13.87
2019-01-04T03:02:49.573Z,12.63
2019-01-04T03:05:17.125Z,13.10
2019-01-04T03:07:44.697Z,12.20
2019-01-04T03:10:12.404Z,11.52
2019-01-04T03:12:39.975Z,12.20
2019-01-04T03:15:08.503Z,11.03
2019-01-04T03:17:36.059Z,12.60
2019-01-04T03:20:03.626Z,11.20
2019-01-04T03:22:31.197Z,12.03
2019-01-04T03:24:58.768Z,13.67
2019-01-04T03:27:26.311Z,12.40
2019-01-04T03:29:55.603Z,12.50
2019-01-04T03:32:23.155Z,12.30
2019-01-04T03:34:50.728Z,13.27
2019-01-04T03:37:18.268Z,14.20
2019-01-04T03:39:45.832Z,11.80
2019-01-04T03:42:13.371Z,13.03
2019-01-04T03:44:40.935Z,12.90
2019-01-04T03:47:08.503Z,14.20
2019-01-04T03:49:36.075Z,13.13
2019-01-04T03:52:03.613Z,14.30
2019-01-04T03:54:31.188Z,13.47
2019-01-04T03:56:58.758Z,14.23
2019-01-04T03:59:26.311Z,19.87
2019-01-04T04:01:54.643Z,20.50
2019-01-04T04:04:22.223Z,20.50
2019-01-04T04:06:49.800Z,17.70
2019-01-04T04:09:17.390Z,14.90
2019-01-04T04:11:44.969Z,13.80
2019-01-04T04:14:12.518Z,15.17
2019-01-04T04:16:41.057Z,15.20
2019-01-04T04:19:08.611Z,14.30
2019-01-04T04:21:36.197Z,14.30
2019-01-04T04:24:03.749Z,14.17
2019-01-04T04:26:31.333Z,13.03
2019-01-04T04:28:58.879Z,13.77
2019-01-04T04:31:26.433Z,12.70
2019-01-04T04:33:54.010Z,13.67
2019-01-04T04:36:21.583Z,12.40
2019-01-04T04:38:49.160Z,12.70
2019-01-04T04:41:16.722Z,13.97
2019-01-04T04:43:45.068Z,14.80
2019-01-04T04:46:12.646Z,16.50
2019-01-04T04:48:40.228Z,14.17
2019-01-04T04:51:07.782Z,12.30
2019-01-04T04:53:36.050Z,14.20
2019-01-04T04:56:02.997Z,12.47
2019-01-04T04:58:30.579Z,12.33
2019-01-04T05:00:59.136Z,12.50
2019-01-04T05:03:27.449Z,15.80
2019-01-04T05:05:55.030Z,12.90
2019-01-04T05:08:22.592Z,11.90
2019-01-04T05:10:50.172Z,11.60
2019-01-04T05:13:19.500Z,12.30
2019-01-04T05:15:47.044Z,12.70
2019-01-04T05:18:14.732Z,13.30
2019-01-04T05:20:42.404Z,11.67
2019-01-04T05:23:09.986Z,12.47
2019-01-04T05:25:37.557Z,12.07
2019-01-04T05:28:05.145Z,11.97
2019-01-04T05:30:32.723Z,13.07
2019-01-04T05:33:00.297Z,15.00
2019-01-04T05:35:27.847Z,13.00
2019-01-04T05:37:55.512Z,12.63
2019-01-04T05:40:23.069Z,12.10
2019-01-04T05:42:50.645Z,12.93
2019-01-04T05:45:18.192Z,13.00
2019-01-04T05:47:45.777Z,13.33
2019-01-04T05:50:13.335Z,12.20
2019-01-04T05:52:41.896Z,12.03
2019-01-04T05:55:09.442Z,12.10
2019-01-04T05:57:37.085Z,12.40
2019-01-04T06:00:04.657Z,12.50
2019-01-04T06:02:32.236Z,12.90
2019-01-04T06:04:59.781Z,11.43
2019-01-04T06:07:27.365Z,11.00
2019-01-04T06:09:54.938Z,12.77
2019-01-04T06:12:23.257Z,11.60
2019-01-04T06:14:50.835Z,11.93
2019-01-04T06:17:18.388Z,13.10
2019-01-04T06:19:45.966Z,14.87
2019-01-04T06:22:13.513Z,15.87
2019-01-04T06:24:41.097Z,14.93
2019-01-04T06:27:08.644Z,13.97
2019-01-04T06:29:36.990Z,20.50
2019-01-04T06:32:04.546Z,15.67
2019-01-04T06:34:32.119Z,14.17
2019-01-04T06:36:59.672Z,13.70
2019-01-04T06:39:27.247Z,13.67
2019-01-04T06:41:54.820Z,15.27
2019-01-04T06:44:23.413Z,15.70
2019-01-04T06:47:02.793Z,12.80
2019-01-04T06:49:30.368Z,13.40
2019-01-04T06:51:57.949Z,13.47
2019-01-04T06:57:29.285Z,14.07
2019-01-04T06:59:57.198Z,15.97
2019-01-04T07:02:25.762Z,19.07
2019-01-04T07:04:53.343Z,15.63
2019-01-04T07:07:20.892Z,15.10
2019-01-04T07:09:49.473Z,16.70
2019-01-04T07:12:17.017Z,16.40
2019-01-04T07:14:45.548Z,15.40
2019-01-04T07:17:13.097Z,12.53
2019-01-04T07:19:40.685Z,13.23
2019-01-04T07:22:08.232Z,13.07
2019-01-04T07:24:35.817Z,12.57
2019-01-04T07:27:03.370Z,14.90
2019-01-04T07:29:30.945Z,15.20
2019-01-04T07:31:59.260Z,13.13
2019-01-04T07:34:26.842Z,11.57
2019-01-04T07:36:54.418Z,13.77
2019-01-04T07:39:22.956Z,15.67
2019-01-04T07:41:50.511Z,17.97
2019-01-04T07:44:18.116Z,12.73
2019-01-04T07:46:45.696Z,12.93
2019-01-04T07:49:13.273Z,13.00
2019-01-04T07:51:40.833Z,16.53
2019-01-04T07:54:08.379Z,15.63
2019-01-04T07:56:35.952Z,19.90
2019-01-04T07:59:03.504Z,25.87
2019-01-04T08:01:31.092Z,41.53
2019-01-04T08:03:58.657Z,33.60
2019-01-04T08:06:26.224Z,37.40
2019-01-04T08:08:53.776Z,30.27
2019-01-04T08:11:21.352Z,24.30
2019-01-04T08:13:49.672Z,19.83
2019-01-04T08:16:17.252Z,22.90
2019-01-04T08:18:44.797Z,26.43
2019-01-04T08:21:12.368Z,17.50
2019-01-04T08:23:39.912Z,15.80
2019-01-04T08:26:07.492Z,15.63
2019-01-04T08:28:35.073Z,14.10
2019-01-04T08:31:03.385Z,15.57
2019-01-04T08:33:31.956Z,19.37
2019-01-04T08:35:59.545Z,15.00
2019-01-04T08:38:27.154Z,14.80
2019-01-04T08:40:54.709Z,15.00
2019-01-04T08:43:22.287Z,14.90
2019-01-04T08:45:49.841Z,14.70
2019-01-04T08:48:17.413Z,15.00
2019-01-04T08:50:44.963Z,16.00
2019-01-04T08:53:12.642Z,17.07
2019-01-04T08:55:40.193Z,16.20
2019-01-04T08:58:07.771Z,14.60
2019-01-04T09:00:35.347Z,16.20
2019-01-04T09:03:02.920Z,13.50
2019-01-04T09:05:30.464Z,15.90
2019-01-04T09:07:58.041Z,15.43
2019-01-04T09:10:26.461Z,14.27
2019-01-04T09:12:54.033Z,15.40
2019-01-04T09:15:21.589Z,15.20
2019-01-04T09:17:49.168Z,14.80
2019-01-04T09:20:16.739Z,15.20
2019-01-04T09:22:44.288Z,15.90
2019-01-04T09:25:12.588Z,15.50
2019-01-04T09:27:40.160Z,15.80
2019-01-04T09:30:07.705Z,13.37
2019-01-04T09:32:35.294Z,12.57
2019-01-04T09:35:02.837Z,14.00
2019-01-04T09:37:31.380Z,11.23
2019-01-04T09:39:58.941Z,15.00
2019-01-04T09:42:26.517Z,11.83
2019-01-04T09:44:54.058Z,9.53
2019-01-04T09:47:21.632Z,42.20
2019-01-04T09:49:49.972Z,22.27
2019-01-04T09:52:17.513Z,23.40
2019-01-04T09:54:45.084Z,33.40
2019-01-04T09:57:12.669Z,23.63
2019-01-04T09:59:42.024Z,22.10
2019-01-04T10:02:09.564Z,37.67
2019-01-04T10:04:37.147Z,19.23
2019-01-04T10:07:04.692Z,18.97
2019-01-04T10:09:32.268Z,10.37
2019-01-04T10:11:59.807Z,9.90
2019-01-04T10:14:27.375Z,10.13
2019-01-04T10:16:54.930Z,10.43
2019-01-04T10:19:22.505Z,10.07
2019-01-04T10:21:50.080Z,8.80
2019-01-04T10:24:17.660Z,13.83
2019-01-04T10:26:45.200Z,9.30
2019-01-04T10:29:13.619Z,9.83
2019-01-04T10:31:41.929Z,10.70
2019-01-04T10:34:09.498Z,11.13
2019-01-04T10:36:37.042Z,11.90
2019-01-04T10:39:04.628Z,11.87
2019-01-04T10:41:32.932Z,11.30
2019-01-04T10:44:00.499Z,10.47
2019-01-04T10:46:28.048Z,11.30
2019-01-04T10:48:55.615Z,11.03
2019-01-04T10:51:23.203Z,11.40
2019-01-04T10:53:50.768Z,12.00
2019-01-04T10:56:18.351Z,11.40
2019-01-04T10:58:47.687Z,12.00
2019-01-04T11:01:15.351Z,11.47
2019-01-04T11:03:43.184Z,12.90
2019-01-04T11:06:10.737Z,13.40
2019-01-04T11:08:38.280Z,12.40
2019-01-04T11:11:05.858Z,12.00
2019-01-04T11:13:33.408Z,13.20
2019-01-04T11:16:00.977Z,14.73
2019-01-04T11:18:28.544Z,12.73
2019-01-04T11:20:56.083Z,17.20
2019-01-04T11:26:27.901Z,15.68
2019-01-04T11:29:02.045Z,18.83
2019-01-04T11:31:35.192Z,15.70
2019-01-04T11:34:18.647Z,15.97
2019-01-04T11:36:54.831Z,15.70
2019-01-04T11:39:24.009Z,13.47
2019-01-04T11:41:55.444Z,14.03
2019-01-04T11:44:42.563Z,41.53
2019-01-04T11:47:12.732Z,43.90
2019-01-04T11:50:04.022Z,17.47
2019-01-04T11:52:32.472Z,17.97
2019-01-04T11:55:00.047Z,15.37
2019-01-04T11:57:27.588Z,13.23
2019-01-04T11:59:55.155Z,13.03
2019-01-04T12:02:26.323Z,11.98
2019-01-04T12:04:50.357Z,14.30
2019-01-04T12:07:17.923Z,13.87
2019-01-04T12:09:53.431Z,13.80
2019-01-04T12:12:22.011Z,14.03
2019-01-04T12:14:49.604Z,17.93
2019-01-04T12:17:17.150Z,15.60
2019-01-04T12:19:44.687Z,14.87
2019-01-04T12:22:12.261Z,13.87
2019-01-04T12:24:39.800Z,13.70
2019-01-04T12:27:07.377Z,16.23
2019-01-04T12:29:34.915Z,16.80
2019-01-04T12:32:02.500Z,15.20
2019-01-04T12:34:30.050Z,15.37
2019-01-04T12:36:57.625Z,15.53
2019-01-04T12:39:25.167Z,16.27
2019-01-04T12:41:52.722Z,18.23
2019-01-04T12:44:20.288Z,18.37
2019-01-04T12:46:47.872Z,16.23
2019-01-04T12:49:15.443Z,16.73
2019-01-04T12:51:43.765Z,18.00
2019-01-04T12:54:11.343Z,16.53
2019-01-04T12:56:38.928Z,17.17
2019-01-04T12:59:06.501Z,18.37
2019-01-04T13:01:34.288Z,17.80
2019-01-04T13:04:01.825Z,18.80
2019-01-04T13:06:29.405Z,18.17
2019-01-04T13:08:56.944Z,16.67
2019-01-04T13:11:25.476Z,18.00
2019-01-04T13:13:53.024Z,14.70
2019-01-04T13:16:20.603Z,15.47
2019-01-04T13:18:48.289Z,14.27
2019-01-04T13:21:15.856Z,14.90
2019-01-04T13:23:43.426Z,15.40
2019-01-04T13:26:11.005Z,15.30
2019-01-04T13:28:38.572Z,16.07
2019-01-04T13:31:06.136Z,15.93
2019-01-04T13:33:33.700Z,16.63
2019-01-04T13:36:01.244Z,15.37
2019-01-04T13:38:28.808Z,15.43
2019-01-04T13:40:56.375Z,14.60
2019-01-04T13:43:23.916Z,14.40
2019-01-04T13:45:51.489Z,15.53
2019-01-04T13:48:19.036Z,15.67
2019-01-04T13:50:46.608Z,15.20
2019-01-04T13:53:14.183Z,14.03
2019-01-04T13:55:42.494Z,14.67
2019-01-04T13:58:10.056Z,15.20
2019-01-04T14:00:37.637Z,15.43
2019-01-04T14:03:06.182Z,15.17
2019-01-04T14:05:33.835Z,15.47
2019-01-04T14:08:01.401Z,16.50
2019-01-04T14:10:28.948Z,15.10
2019-01-04T14:12:56.524Z,15.80
2019-01-04T14:15:24.065Z,15.07
2019-01-04T14:17:51.640Z,14.50
2019-01-04T14:20:20.120Z,13.90
2019-01-04T14:22:47.672Z,18.30
2019-01-04T14:25:15.254Z,16.17
2019-01-04T14:27:42.829Z,14.73
2019-01-04T14:30:10.412Z,14.83
2019-01-04T14:32:37.962Z,15.90
2019-01-04T14:35:06.496Z,17.03
2019-01-04T14:37:35.041Z,15.70
2019-01-04T14:40:02.601Z,15.97
2019-01-04T14:42:30.178Z,18.00
2019-01-04T14:44:57.720Z,17.20
2019-01-04T14:47:25.288Z,18.70
2019-01-04T14:49:52.837Z,18.20
2019-01-04T14:52:20.514Z,20.10
2019-01-04T14:54:48.091Z,17.90
2019-01-04T14:57:16.644Z,17.90
2019-01-04T14:59:44.189Z,17.30
2019-01-04T15:02:11.768Z,18.73
2019-01-04T15:04:39.321Z,18.40
2019-01-04T15:07:06.902Z,17.73
2019-01-04T15:09:34.469Z,18.10
2019-01-04T15:12:02.017Z,17.90
2019-01-04T15:14:29.585Z,18.60
2019-01-04T15:16:58.052Z,18.90
2019-01-04T15:19:25.633Z,18.20
2019-01-04T15:21:53.188Z,19.50
2019-01-04T15:24:20.762Z,20.27
2019-01-04T15:26:49.068Z,19.10
2019-01-04T15:29:17.641Z,24.37
2019-01-04T15:31:45.219Z,35.50
2019-01-04T15:34:12.763Z,24.90
2019-01-04T15:36:40.336Z,21.37
2019-01-04T15:39:07.896Z,23.07
2019-01-04T15:41:35.463Z,21.27
2019-01-04T15:44:03.037Z,22.23
2019-01-04T15:46:30.585Z,21.37
2019-01-04T15:48:58.152Z,20.70
2019-01-04T15:51:25.705Z,21.33
2019-01-04T15:53:53.273Z,21.17
2019-01-04T15:56:20.818Z,22.47
2019-01-04T15:58:48.401Z,24.33
2019-01-04T16:01:16.009Z,27.67
2019-01-04T16:03:43.552Z,27.70
2019-01-04T16:06:11.130Z,39.40
2019-01-04T16:08:38.677Z,52.70
2019-01-04T16:11:06.255Z,25.47
2019-01-04T16:13:33.825Z,30.17
2019-01-04T16:16:01.395Z,26.80
2019-01-04T16:18:28.946Z,24.33
2019-01-04T16:20:56.524Z,26.33
2019-01-04T16:23:24.948Z,25.13
2019-01-04T16:25:52.499Z,23.25
2019-01-04T16:28:20.048Z,22.07
2019-01-04T16:30:47.621Z,24.57
2019-01-04T16:33:15.164Z,28.80
2019-01-04T16:35:42.747Z,23.50
2019-01-04T16:38:10.316Z,23.10
2019-01-04T16:40:37.868Z,26.07
2019-01-04T16:43:05.443Z,27.67
2019-01-04T16:45:33.017Z,27.00
2019-01-04T16:48:00.558Z,26.03
2019-01-04T16:50:28.128Z,24.80
2019-01-04T16:52:59.471Z,25.53
2019-01-04T16:55:23.296Z,24.33
2019-01-04T16:57:50.868Z,24.00
2019-01-04T17:00:18.413Z,27.30
2019-01-04T17:02:45.965Z,26.73
2019-01-04T17:05:13.544Z,22.50
2019-01-04T17:07:41.099Z,20.30
2019-01-04T17:10:08.675Z,21.20
2019-01-04T17:12:36.230Z,22.10
2019-01-04T17:15:03.812Z,23.53
2019-01-04T17:17:31.361Z,24.50
2019-01-04T17:19:58.926Z,24.93
2019-01-04T17:22:26.473Z,25.63
2019-01-04T17:24:54.060Z,23.10
2019-01-04T17:27:21.604Z,22.93
2019-01-04T17:29:49.178Z,21.80
2019-01-04T17:32:16.749Z,25.03
2019-01-04T17:34:44.326Z,25.50
2019-01-04T17:37:11.869Z,25.47
2019-01-04T17:39:40.427Z,26.23
2019-01-04T17:42:07.995Z,24.10
2019-01-04T17:44:35.575Z,24.47
2019-01-04T17:47:03.116Z,23.83
2019-01-04T17:49:30.697Z,30.07
2019-01-04T17:51:58.244Z,23.20
2019-01-04T17:54:25.824Z,25.23
2019-01-04T17:56:53.560Z,22.07
2019-01-04T17:59:21.128Z,32.07
2019-01-04T18:01:48.700Z,32.97
2019-01-04T18:04:16.256Z,27.87
2019-01-04T18:06:43.838Z,28.27
2019-01-04T18:09:12.177Z,25.60
2019-01-04T18:11:39.754Z,29.07
2019-01-04T18:14:07.328Z,30.60
2019-01-04T18:16:34.880Z,27.70
2019-01-04T18:19:03.228Z,26.57
2019-01-04T18:21:30.808Z,30.87
2019-01-04T18:23:58.389Z,26.07
2019-01-04T18:26:26.199Z,26.80
2019-01-04T18:28:53.740Z,25.30
2019-01-04T18:31:21.317Z,24.80
2019-01-04T18:33:48.868Z,22.33
2019-01-04T18:36:16.443Z,22.37
2019-01-04T18:38:43.991Z,22.53
2019-01-04T18:41:11.592Z,22.57
2019-01-04T18:43:39.382Z,23.33
2019-01-04T18:46:06.932Z,23.53
2019-01-04T18:48:35.484Z,23.30
2019-01-04T18:51:03.068Z,24.13
2019-01-04T18:53:30.645Z,36.03
2019-01-04T18:55:58.200Z,27.93
2019-01-04T18:58:25.789Z,26.40
2019-01-04T19:00:53.359Z,27.50
2019-01-04T19:05:54.680Z,26.20
2019-01-04T19:08:23.208Z,27.10
2019-01-04T19:10:50.749Z,27.27
2019-01-04T19:13:18.323Z,24.97
2019-01-04T19:15:45.875Z,29.10
2019-01-04T19:18:13.448Z,26.90
2019-01-04T19:20:41.025Z,35.10
2019-01-04T19:23:08.600Z,27.77
2019-01-04T19:25:36.150Z,29.10
2019-01-04T19:28:03.720Z,29.57
2019-01-04T19:30:36.096Z,27.60
2019-01-04T19:33:04.696Z,26.53
2019-01-04T19:35:32.247Z,27.30
2019-01-04T19:37:59.820Z,26.77
2019-01-04T19:40:27.451Z,28.80
2019-01-04T19:42:55.032Z,26.83
2019-01-04T19:45:22.646Z,24.70
2019-01-04T19:47:50.199Z,28.43
2019-01-04T19:50:17.781Z,40.33
2019-01-04T19:52:45.333Z,27.10
2019-01-04T19:55:12.907Z,31.00
2019-01-04T19:57:40.458Z,34.93
2019-01-04T20:00:08.066Z,27.77
2019-01-04T20:02:35.624Z,25.00
2019-01-04T20:05:03.195Z,26.70
2019-01-04T20:07:53.156Z,25.33
2019-01-04T20:14:14.958Z,27.98
2019-01-04T20:16:48.225Z,27.80
2019-01-04T20:19:21.347Z,65.80
2019-01-04T20:24:46.031Z,41.35
2019-01-04T20:27:28.453Z,38.07
2019-01-04T20:30:04.516Z,27.03
2019-01-04T20:32:37.704Z,29.40
2019-01-04T20:35:10.957Z,35.47
2019-01-04T20:37:44.040Z,51.30
2019-01-04T20:40:18.838Z,47.57
2019-01-04T20:42:49.007Z,32.77
2019-01-04T20:45:21.474Z,26.87
2019-01-04T20:47:54.765Z,28.60
2019-01-04T20:50:28.045Z,27.53
2019-01-04T20:53:01.202Z,26.70
2019-01-04T20:58:25.575Z,31.12
2019-01-04T21:00:59.644Z,29.47
2019-01-04T21:03:32.893Z,28.50
2019-01-04T21:06:06.152Z,27.10
2019-01-04T21:08:52.504Z,27.40
2019-01-04T21:11:24.087Z,26.30
2019-01-04T21:14:09.417Z,27.20
2019-01-04T21:19:38.068Z,28.83
2019-01-04T21:22:11.205Z,28.20
2019-01-04T21:24:43.371Z,28.60
2019-01-04T21:27:13.446Z,27.87
2019-01-04T21:29:52.940Z,27.47
2019-01-04T21:32:36.236Z,24.80
2019-01-04T21:35:06.301Z,27.20
2019-01-04T21:37:36.461Z,25.77
2019-01-04T21:40:09.120Z,27.20
2019-01-04T21:42:56.509Z,27.83
2019-01-04T21:45:29.307Z,25.67
2019-01-04T21:47:58.359Z,26.13
2019-01-04T21:53:24.854Z,27.23
2019-01-04T21:55:56.168Z,27.23
2019-01-04T21:58:32.149Z,26.30
2019-01-04T22:01:01.596Z,28.37
2019-01-04T22:03:32.590Z,28.00
2019-01-04T22:06:05.814Z,26.10
2019-01-04T22:08:33.392Z,26.83
2019-01-04T22:11:05.519Z,28.17
2019-01-04T22:13:38.787Z,29.00
2019-01-04T22:19:11.316Z,29.60
2019-01-04T22:21:44.540Z,29.10
2019-01-04T22:24:15.776Z,29.63
2019-01-04T22:26:43.329Z,28.20
2019-01-04T22:29:14.590Z,27.97
2019-01-04T22:31:45.944Z,28.10
2019-01-04T22:34:14.112Z,27.27
2019-01-04T22:36:42.519Z,29.60
2019-01-04T22:39:27.747Z,27.83
2019-01-04T22:41:58.232Z,26.27
2019-01-04T22:44:43.584Z,29.83
2019-01-04T22:47:15.616Z,30.13
2019-01-04T22:49:48.058Z,29.67
2019-01-04T22:52:15.636Z,28.67
2019-01-04T22:54:45.673Z,27.20
2019-01-04T22:57:33.056Z,30.67
2019-01-04T23:00:15.508Z,30.33
2019-01-04T23:02:49.671Z,30.47
2019-01-04T23:05:22.764Z,30.60
2019-01-04T23:08:05.224Z,31.77
2019-01-04T23:10:33.279Z,32.03
2019-01-04T23:13:12.688Z,31.90
2019-01-04T23:15:52.902Z,31.07
2019-01-04T23:18:21.356Z,31.80
2019-01-04T23:20:54.520Z,32.33
2019-01-04T23:23:23.000Z,30.90
2019-01-04T23:25:52.040Z,30.60
2019-01-04T23:28:26.220Z,30.30
2019-01-04T23:30:59.344Z,30.80
2019-01-04T23:33:26.916Z,31.33
2019-01-04T23:39:02.533Z,32.85
2019-01-04T23:41:33.645Z,34.97
2019-01-04T23:44:03.123Z,32.43
2019-01-04T23:46:49.500Z,30.50
2019-01-04T23:49:32.844Z,32.73
2019-01-04T23:52:06.076Z,42.67
2019-01-04T23:54:36.316Z,70.10
2019-01-04T23:57:20.697Z,43.07
2019-01-04T23:59:53.857Z,34.47
